Jacobson, Minnesota
Current Conditions -  °F | °C
As of 11:15 PM on Saturday 20 Dec 2014 (Local Time) from KGPZ Reporting Station
Overcast Overcast  
Wind Chill: 14°   Ceiling: 500
Heat Index: 27°   Visibility: 8mi
Dew Point: 25°   Wind: 17mph
Humidity: 93%   Direction: 170°S
Pressure: 29.98"   Gusts: 25mph
Location:  47°N, 93.27°W
Report Text: KGPZ 210515Z AUTO 17015G22KT 8SM OVC005 M03/M04 A2998 RMK AO1
Loading
Personal Weather Stations






























Interactive Weather Map New forecast layout! Learn more

10-Day Weather Forecast

Advertisements
Track Severe Weather on mobile